sensor_id;sensor_type;location;lat;lon;timestamp;P1;durP1;ratioP1;P2;durP2;ratioP2
10063;SDS011;5071;52.360;13.134;2023-01-16T00:03:01;0.50;;;0.30;;
10063;SDS011;5071;52.360;13.134;2023-01-16T00:08:05;3.00;;;0.70;;
10063;SDS011;5071;52.360;13.134;2023-01-16T00:13:08;1.20;;;0.60;;
10063;SDS011;5071;52.360;13.134;2023-01-16T00:18:11;2.00;;;0.53;;
10063;SDS011;5071;52.360;13.134;2023-01-16T00:23:14;2.53;;;0.37;;
10063;SDS011;5071;52.360;13.134;2023-01-16T00:28:16;1.00;;;0.50;;
10063;SDS011;5071;52.360;13.134;2023-01-16T00:33:18;1.77;;;0.57;;
10063;SDS011;5071;52.360;13.134;2023-01-16T00:38:22;3.40;;;1.37;;
10063;SDS011;5071;52.360;13.134;2023-01-16T00:43:24;1.80;;;0.73;;
10063;SDS011;5071;52.360;13.134;2023-01-16T00:48:26;0.80;;;0.50;;
10063;SDS011;5071;52.360;13.134;2023-01-16T00:53:29;1.10;;;0.57;;
10063;SDS011;5071;52.360;13.134;2023-01-16T00:58:31;1.23;;;0.37;;
10063;SDS011;5071;52.360;13.134;2023-01-16T01:03:32;2.73;;;0.40;;
10063;SDS011;5071;52.360;13.134;2023-01-16T01:08:35;0.43;;;0.40;;
10063;SDS011;5071;52.360;13.134;2023-01-16T01:13:37;0.30;;;0.30;;
10063;SDS011;5071;52.360;13.134;2023-01-16T01:18:40;1.10;;;0.60;;
10063;SDS011;5071;52.360;13.134;2023-01-16T01:23:44;5.17;;;0.50;;
10063;SDS011;5071;52.360;13.134;2023-01-16T01:28:46;2.40;;;0.40;;
10063;SDS011;5071;52.360;13.134;2023-01-16T01:33:48;1.50;;;0.57;;
10063;SDS011;5071;52.360;13.134;2023-01-16T01:38:52;1.13;;;0.43;;
10063;SDS011;5071;52.360;13.134;2023-01-16T01:43:54;0.33;;;0.33;;
10063;SDS011;5071;52.360;13.134;2023-01-16T01:48:57;1.33;;;0.30;;
10063;SDS011;5071;52.360;13.134;2023-01-16T01:54:07;1.90;;;0.50;;
10063;SDS011;5071;52.360;13.134;2023-01-16T01:59:14;0.40;;;0.30;;
10063;SDS011;5071;52.360;13.134;2023-01-16T02:04:22;1.03;;;0.40;;
10063;SDS011;5071;52.360;13.134;2023-01-16T02:09:29;0.37;;;0.37;;
10063;SDS011;5071;52.360;13.134;2023-01-16T02:14:31;0.80;;;0.37;;
10063;SDS011;5071;52.360;13.134;2023-01-16T02:19:48;0.60;;;0.30;;
10063;SDS011;5071;52.360;13.134;2023-01-16T02:36:26;0.20;;;0.20;;
10063;SDS011;5071;52.360;13.134;2023-01-16T02:41:42;0.73;;;0.40;;
10063;SDS011;5071;52.360;13.134;2023-01-16T02:46:53;1.17;;;0.30;;
10063;SDS011;5071;52.360;13.134;2023-01-16T02:52:03;2.03;;;0.63;;
10063;SDS011;5071;52.360;13.134;2023-01-16T02:57:14;1.27;;;0.50;;
10063;SDS011;5071;52.360;13.134;2023-01-16T03:02:20;1.73;;;0.93;;
10063;SDS011;5071;52.360;13.134;2023-01-16T03:07:30;1.77;;;0.50;;
10063;SDS011;5071;52.360;13.134;2023-01-16T03:12:53;0.57;;;0.33;;
10063;SDS011;5071;52.360;13.134;2023-01-16T03:18:08;2.97;;;0.60;;
10063;SDS011;5071;52.360;13.134;2023-01-16T03:23:21;0.60;;;0.50;;
10063;SDS011;5071;52.360;13.134;2023-01-16T03:28:32;0.67;;;0.30;;
10063;SDS011;5071;52.360;13.134;2023-01-16T03:33:44;0.53;;;0.30;;
10063;SDS011;5071;52.360;13.134;2023-01-16T03:38:51;1.53;;;0.50;;
10063;SDS011;5071;52.360;13.134;2023-01-16T03:43:57;0.87;;;0.50;;
10063;SDS011;5071;52.360;13.134;2023-01-16T03:49:05;1.07;;;0.60;;
10063;SDS011;5071;52.360;13.134;2023-01-16T03:54:22;1.67;;;0.60;;
10063;SDS011;5071;52.360;13.134;2023-01-16T03:59:31;4.90;;;0.50;;
10063;SDS011;5071;52.360;13.134;2023-01-16T04:04:36;1.10;;;0.30;;
10063;SDS011;5071;52.360;13.134;2023-01-16T04:09:44;1.23;;;0.30;;
10063;SDS011;5071;52.360;13.134;2023-01-16T04:14:51;1.67;;;0.20;;
10063;SDS011;5071;52.360;13.134;2023-01-16T04:19:59;0.97;;;0.60;;
10063;SDS011;5071;52.360;13.134;2023-01-16T04:25:02;1.50;;;0.70;;
10063;SDS011;5071;52.360;13.134;2023-01-16T04:30:08;3.47;;;0.60;;
10063;SDS011;5071;52.360;13.134;2023-01-16T04:35:12;1.23;;;0.60;;
10063;SDS011;5071;52.360;13.134;2023-01-16T04:40:14;1.33;;;0.33;;
10063;SDS011;5071;52.360;13.134;2023-01-16T04:45:16;1.27;;;0.60;;
10063;SDS011;5071;52.360;13.134;2023-01-16T04:50:19;2.40;;;0.77;;
10063;SDS011;5071;52.360;13.134;2023-01-16T04:55:21;0.83;;;0.50;;
10063;SDS011;5071;52.360;13.134;2023-01-16T05:00:24;3.80;;;1.43;;
10063;SDS011;5071;52.360;13.134;2023-01-16T05:05:27;0.43;;;0.43;;
10063;SDS011;5071;52.360;13.134;2023-01-16T05:10:30;1.27;;;0.57;;
10063;SDS011;5071;52.360;13.134;2023-01-16T05:15:32;2.50;;;0.80;;
10063;SDS011;5071;52.360;13.134;2023-01-16T05:20:35;0.40;;;0.37;;
10063;SDS011;5071;52.360;13.134;2023-01-16T05:25:37;0.97;;;0.87;;
10063;SDS011;5071;52.360;13.134;2023-01-16T05:30:40;2.20;;;0.80;;
10063;SDS011;5071;52.360;13.134;2023-01-16T05:35:44;1.07;;;0.70;;
10063;SDS011;5071;52.360;13.134;2023-01-16T05:40:46;1.70;;;0.40;;
10063;SDS011;5071;52.360;13.134;2023-01-16T05:45:48;0.47;;;0.47;;
10063;SDS011;5071;52.360;13.134;2023-01-16T05:50:52;2.60;;;0.63;;
10063;SDS011;5071;52.360;13.134;2023-01-16T05:55:54;2.17;;;0.57;;
10063;SDS011;5071;52.360;13.134;2023-01-16T06:00:56;1.17;;;0.70;;
10063;SDS011;5071;52.360;13.134;2023-01-16T06:06:07;3.30;;;0.53;;
10063;SDS011;5071;52.360;13.134;2023-01-16T06:11:09;5.40;;;0.97;;
10063;SDS011;5071;52.360;13.134;2023-01-16T06:16:11;2.17;;;0.70;;
10063;SDS011;5071;52.360;13.134;2023-01-16T06:21:14;1.83;;;0.60;;
10063;SDS011;5071;52.360;13.134;2023-01-16T06:26:16;6.10;;;0.70;;
10063;SDS011;5071;52.360;13.134;2023-01-16T06:31:18;2.67;;;0.63;;
10063;SDS011;5071;52.360;13.134;2023-01-16T06:36:21;1.10;;;0.50;;
10063;SDS011;5071;52.360;13.134;2023-01-16T06:41:23;1.43;;;0.70;;
10063;SDS011;5071;52.360;13.134;2023-01-16T06:46:25;3.63;;;0.60;;
10063;SDS011;5071;52.360;13.134;2023-01-16T06:51:33;2.17;;;0.60;;
10063;SDS011;5071;52.360;13.134;2023-01-16T06:56:35;1.03;;;0.60;;
10063;SDS011;5071;52.360;13.134;2023-01-16T07:01:37;1.63;;;0.70;;
10063;SDS011;5071;52.360;13.134;2023-01-16T07:06:41;4.63;;;0.77;;
10063;SDS011;5071;52.360;13.134;2023-01-16T07:11:49;1.23;;;0.63;;
10063;SDS011;5071;52.360;13.134;2023-01-16T07:16:51;2.93;;;0.67;;
10063;SDS011;5071;52.360;13.134;2023-01-16T07:21:54;3.53;;;1.00;;
10063;SDS011;5071;52.360;13.134;2023-01-16T07:26:57;1.93;;;1.00;;
10063;SDS011;5071;52.360;13.134;2023-01-16T07:32:02;2.97;;;0.80;;
10063;SDS011;5071;52.360;13.134;2023-01-16T07:37:06;2.23;;;0.83;;
10063;SDS011;5071;52.360;13.134;2023-01-16T07:42:08;3.57;;;1.10;;
10063;SDS011;5071;52.360;13.134;2023-01-16T07:47:10;4.70;;;0.67;;
10063;SDS011;5071;52.360;13.134;2023-01-16T07:52:13;1.70;;;0.87;;
10063;SDS011;5071;52.360;13.134;2023-01-16T07:57:16;3.50;;;0.70;;
10063;SDS011;5071;52.360;13.134;2023-01-16T08:02:20;1.50;;;0.60;;
10063;SDS011;5071;52.360;13.134;2023-01-16T08:07:23;1.30;;;0.67;;
10063;SDS011;5071;52.360;13.134;2023-01-16T08:12:25;1.27;;;0.60;;
10063;SDS011;5071;52.360;13.134;2023-01-16T08:17:37;4.67;;;1.23;;
10063;SDS011;5071;52.360;13.134;2023-01-16T08:22:44;4.00;;;0.80;;
10063;SDS011;5071;52.360;13.134;2023-01-16T08:27:46;2.47;;;0.70;;
10063;SDS011;5071;52.360;13.134;2023-01-16T08:32:48;1.13;;;0.77;;
10063;SDS011;5071;52.360;13.134;2023-01-16T08:37:51;2.17;;;0.60;;
10063;SDS011;5071;52.360;13.134;2023-01-16T08:42:54;2.60;;;0.50;;
10063;SDS011;5071;52.360;13.134;2023-01-16T08:47:55;1.00;;;0.57;;
10063;SDS011;5071;52.360;13.134;2023-01-16T08:53:00;0.67;;;0.57;;
10063;SDS011;5071;52.360;13.134;2023-01-16T08:58:02;2.37;;;0.80;;
10063;SDS011;5071;52.360;13.134;2023-01-16T09:03:05;2.30;;;0.80;;
10063;SDS011;5071;52.360;13.134;2023-01-16T09:08:08;1.53;;;0.87;;
10063;SDS011;5071;52.360;13.134;2023-01-16T09:13:10;1.43;;;0.70;;
10063;SDS011;5071;52.360;13.134;2023-01-16T09:18:12;2.07;;;0.70;;
10063;SDS011;5071;52.360;13.134;2023-01-16T09:23:16;1.43;;;0.70;;
10063;SDS011;5071;52.360;13.134;2023-01-16T09:28:18;1.33;;;0.40;;
10063;SDS011;5071;52.360;13.134;2023-01-16T09:33:20;2.23;;;0.73;;
10063;SDS011;5071;52.360;13.134;2023-01-16T09:38:24;3.07;;;0.60;;
10063;SDS011;5071;52.360;13.134;2023-01-16T09:43:33;0.90;;;0.40;;
10063;SDS011;5071;52.360;13.134;2023-01-16T09:48:38;1.67;;;0.70;;
10063;SDS011;5071;52.360;13.134;2023-01-16T09:53:54;3.17;;;0.50;;
10063;SDS011;5071;52.360;13.134;2023-01-16T09:59:02;2.57;;;0.60;;
10063;SDS011;5071;52.360;13.134;2023-01-16T10:04:18;1.00;;;0.40;;
10063;SDS011;5071;52.360;13.134;2023-01-16T10:09:25;1.33;;;0.60;;
10063;SDS011;5071;52.360;13.134;2023-01-16T10:20:15;1.30;;;0.60;;
10063;SDS011;5071;52.360;13.134;2023-01-16T10:25:30;1.27;;;0.40;;
10063;SDS011;5071;52.360;13.134;2023-01-16T10:30:40;1.70;;;0.40;;
10063;SDS011;5071;52.360;13.134;2023-01-16T10:35:48;3.20;;;0.50;;
10063;SDS011;5071;52.360;13.134;2023-01-16T10:40:54;0.80;;;0.37;;
10063;SDS011;5071;52.360;13.134;2023-01-16T10:45:57;3.23;;;0.50;;
10063;SDS011;5071;52.360;13.134;2023-01-16T10:51:03;0.37;;;0.30;;
10063;SDS011;5071;52.360;13.134;2023-01-16T10:56:08;0.90;;;0.60;;
10063;SDS011;5071;52.360;13.134;2023-01-16T11:01:13;2.13;;;0.33;;
10063;SDS011;5071;52.360;13.134;2023-01-16T11:06:18;1.67;;;0.60;;
10063;SDS011;5071;52.360;13.134;2023-01-16T11:11:23;1.67;;;0.50;;
10063;SDS011;5071;52.360;13.134;2023-01-16T11:16:26;0.50;;;0.50;;
10063;SDS011;5071;52.360;13.134;2023-01-16T11:21:30;1.60;;;0.50;;
10063;SDS011;5071;52.360;13.134;2023-01-16T11:26:34;1.20;;;0.60;;
10063;SDS011;5071;52.360;13.134;2023-01-16T11:31:37;1.40;;;0.63;;
10063;SDS011;5071;52.360;13.134;2023-01-16T11:36:40;1.20;;;0.40;;
10063;SDS011;5071;52.360;13.134;2023-01-16T11:41:45;1.17;;;0.60;;
10063;SDS011;5071;52.360;13.134;2023-01-16T11:46:49;1.23;;;0.63;;
10063;SDS011;5071;52.360;13.134;2023-01-16T11:51:58;2.70;;;0.60;;
10063;SDS011;5071;52.360;13.134;2023-01-16T11:57:05;1.70;;;0.50;;
10063;SDS011;5071;52.360;13.134;2023-01-16T12:02:55;0.43;;;0.33;;
10063;SDS011;5071;52.360;13.134;2023-01-16T12:08:27;4.53;;;0.70;;
10063;SDS011;5071;52.360;13.134;2023-01-16T12:13:48;0.93;;;0.40;;
10063;SDS011;5071;52.360;13.134;2023-01-16T12:18:59;0.90;;;0.70;;
10063;SDS011;5071;52.360;13.134;2023-01-16T12:24:16;0.73;;;0.40;;
10063;SDS011;5071;52.360;13.134;2023-01-16T12:29:36;1.47;;;0.60;;
10063;SDS011;5071;52.360;13.134;2023-01-16T12:34:52;1.77;;;0.40;;
10063;SDS011;5071;52.360;13.134;2023-01-16T12:40:25;0.60;;;0.33;;
10063;SDS011;5071;52.360;13.134;2023-01-16T12:45:40;0.50;;;0.43;;
10063;SDS011;5071;52.360;13.134;2023-01-16T12:50:54;0.33;;;0.30;;
10063;SDS011;5071;52.360;13.134;2023-01-16T12:56:10;0.60;;;0.40;;
10063;SDS011;5071;52.360;13.134;2023-01-16T13:01:24;0.40;;;0.30;;
10063;SDS011;5071;52.360;13.134;2023-01-16T13:06:32;0.37;;;0.30;;
10063;SDS011;5071;52.360;13.134;2023-01-16T13:17:16;1.17;;;0.40;;
10063;SDS011;5071;52.360;13.134;2023-01-16T13:22:34;1.23;;;0.80;;
10063;SDS011;5071;52.360;13.134;2023-01-16T13:27:42;1.40;;;0.60;;
10063;SDS011;5071;52.360;13.134;2023-01-16T13:32:49;1.07;;;0.50;;
10063;SDS011;5071;52.360;13.134;2023-01-16T13:43:26;1.13;;;0.60;;
10063;SDS011;5071;52.360;13.134;2023-01-16T13:48:34;1.37;;;0.50;;
10063;SDS011;5071;52.360;13.134;2023-01-16T13:53:38;0.60;;;0.43;;
10063;SDS011;5071;52.360;13.134;2023-01-16T13:58:40;1.23;;;0.50;;
10063;SDS011;5071;52.360;13.134;2023-01-16T14:09:29;0.93;;;0.43;;
10063;SDS011;5071;52.360;13.134;2023-01-16T14:14:33;1.50;;;0.47;;
10063;SDS011;5071;52.360;13.134;2023-01-16T14:19:53;0.30;;;0.30;;
10063;SDS011;5071;52.360;13.134;2023-01-16T14:24:57;0.70;;;0.50;;
10063;SDS011;5071;52.360;13.134;2023-01-16T14:30:00;0.27;;;0.27;;
10063;SDS011;5071;52.360;13.134;2023-01-16T14:35:10;0.47;;;0.30;;
10063;SDS011;5071;52.360;13.134;2023-01-16T14:40:18;2.50;;;0.30;;
10063;SDS011;5071;52.360;13.134;2023-01-16T14:45:26;0.30;;;0.30;;
10063;SDS011;5071;52.360;13.134;2023-01-16T14:50:44;1.03;;;0.40;;
10063;SDS011;5071;52.360;13.134;2023-01-16T14:55:56;1.80;;;0.53;;
10063;SDS011;5071;52.360;13.134;2023-01-16T15:01:00;1.93;;;0.67;;
10063;SDS011;5071;52.360;13.134;2023-01-16T15:06:07;3.20;;;0.50;;
10063;SDS011;5071;52.360;13.134;2023-01-16T15:11:12;1.43;;;0.50;;
10063;SDS011;5071;52.360;13.134;2023-01-16T15:16:23;4.13;;;0.70;;
10063;SDS011;5071;52.360;13.134;2023-01-16T15:21:27;2.63;;;0.60;;
10063;SDS011;5071;52.360;13.134;2023-01-16T15:26:36;1.90;;;0.57;;
10063;SDS011;5071;52.360;13.134;2023-01-16T15:31:46;1.47;;;0.70;;
10063;SDS011;5071;52.360;13.134;2023-01-16T15:36:59;2.13;;;0.60;;
10063;SDS011;5071;52.360;13.134;2023-01-16T15:42:03;5.70;;;0.80;;
10063;SDS011;5071;52.360;13.134;2023-01-16T15:47:24;1.50;;;0.77;;
10063;SDS011;5071;52.360;13.134;2023-01-16T15:52:46;3.23;;;0.93;;
10063;SDS011;5071;52.360;13.134;2023-01-16T15:57:49;0.90;;;0.70;;
10063;SDS011;5071;52.360;13.134;2023-01-16T16:02:57;1.73;;;0.50;;
10063;SDS011;5071;52.360;13.134;2023-01-16T16:08:01;2.17;;;1.03;;
10063;SDS011;5071;52.360;13.134;2023-01-16T16:13:05;4.67;;;0.93;;
10063;SDS011;5071;52.360;13.134;2023-01-16T16:18:12;3.00;;;1.03;;
10063;SDS011;5071;52.360;13.134;2023-01-16T16:23:17;1.37;;;0.80;;
10063;SDS011;5071;52.360;13.134;2023-01-16T16:28:23;2.97;;;0.90;;
10063;SDS011;5071;52.360;13.134;2023-01-16T16:33:28;4.13;;;1.17;;
10063;SDS011;5071;52.360;13.134;2023-01-16T16:38:40;0.87;;;0.60;;
10063;SDS011;5071;52.360;13.134;2023-01-16T16:43:44;1.10;;;0.70;;
10063;SDS011;5071;52.360;13.134;2023-01-16T16:48:48;2.37;;;1.10;;
10063;SDS011;5071;52.360;13.134;2023-01-16T16:53:53;0.63;;;0.60;;
10063;SDS011;5071;52.360;13.134;2023-01-16T16:58:58;2.87;;;0.90;;
10063;SDS011;5071;52.360;13.134;2023-01-16T17:04:11;1.30;;;0.70;;
10063;SDS011;5071;52.360;13.134;2023-01-16T17:09:15;4.63;;;1.10;;
10063;SDS011;5071;52.360;13.134;2023-01-16T17:14:18;2.87;;;1.23;;
10063;SDS011;5071;52.360;13.134;2023-01-16T17:19:21;3.07;;;1.00;;
10063;SDS011;5071;52.360;13.134;2023-01-16T17:24:29;4.73;;;0.93;;
10063;SDS011;5071;52.360;13.134;2023-01-16T17:29:33;1.30;;;1.07;;
10063;SDS011;5071;52.360;13.134;2023-01-16T17:34:35;1.57;;;1.00;;
10063;SDS011;5071;52.360;13.134;2023-01-16T17:39:38;2.30;;;1.00;;
10063;SDS011;5071;52.360;13.134;2023-01-16T17:44:41;2.80;;;1.20;;
10063;SDS011;5071;52.360;13.134;2023-01-16T17:49:43;1.57;;;0.93;;
10063;SDS011;5071;52.360;13.134;2023-01-16T17:54:46;2.20;;;1.20;;
10063;SDS011;5071;52.360;13.134;2023-01-16T17:59:48;4.13;;;1.10;;
10063;SDS011;5071;52.360;13.134;2023-01-16T18:04:50;1.90;;;0.80;;
10063;SDS011;5071;52.360;13.134;2023-01-16T18:09:53;1.77;;;1.10;;
10063;SDS011;5071;52.360;13.134;2023-01-16T18:14:55;2.00;;;0.97;;
10063;SDS011;5071;52.360;13.134;2023-01-16T18:19:58;3.33;;;0.80;;
10063;SDS011;5071;52.360;13.134;2023-01-16T18:25:01;3.23;;;1.10;;
10063;SDS011;5071;52.360;13.134;2023-01-16T18:30:05;3.83;;;1.27;;
10063;SDS011;5071;52.360;13.134;2023-01-16T18:35:08;4.63;;;1.00;;
10063;SDS011;5071;52.360;13.134;2023-01-16T18:40:13;1.37;;;0.70;;
10063;SDS011;5071;52.360;13.134;2023-01-16T18:45:15;2.00;;;1.30;;
10063;SDS011;5071;52.360;13.134;2023-01-16T18:50:17;2.17;;;0.70;;
10063;SDS011;5071;52.360;13.134;2023-01-16T18:55:21;2.00;;;0.90;;
10063;SDS011;5071;52.360;13.134;2023-01-16T19:00:24;3.13;;;1.10;;
10063;SDS011;5071;52.360;13.134;2023-01-16T19:05:26;1.77;;;1.00;;
10063;SDS011;5071;52.360;13.134;2023-01-16T19:10:30;2.50;;;1.10;;
10063;SDS011;5071;52.360;13.134;2023-01-16T19:15:34;2.33;;;0.80;;
10063;SDS011;5071;52.360;13.134;2023-01-16T19:20:37;3.00;;;1.40;;
10063;SDS011;5071;52.360;13.134;2023-01-16T19:25:40;2.40;;;1.13;;
10063;SDS011;5071;52.360;13.134;2023-01-16T19:30:42;1.80;;;1.10;;
10063;SDS011;5071;52.360;13.134;2023-01-16T19:35:43;1.87;;;1.10;;
10063;SDS011;5071;52.360;13.134;2023-01-16T19:40:47;4.37;;;1.53;;
10063;SDS011;5071;52.360;13.134;2023-01-16T19:45:56;2.60;;;1.33;;
10063;SDS011;5071;52.360;13.134;2023-01-16T19:51:01;3.60;;;1.37;;
10063;SDS011;5071;52.360;13.134;2023-01-16T19:56:07;2.30;;;1.30;;
10063;SDS011;5071;52.360;13.134;2023-01-16T20:01:09;1.77;;;1.23;;
10063;SDS011;5071;52.360;13.134;2023-01-16T20:06:13;3.27;;;1.40;;
10063;SDS011;5071;52.360;13.134;2023-01-16T20:11:17;3.00;;;1.00;;
10063;SDS011;5071;52.360;13.134;2023-01-16T20:16:19;2.93;;;1.30;;
10063;SDS011;5071;52.360;13.134;2023-01-16T20:21:21;1.80;;;1.10;;
10063;SDS011;5071;52.360;13.134;2023-01-16T20:26:24;3.07;;;1.50;;
10063;SDS011;5071;52.360;13.134;2023-01-16T20:31:26;6.90;;;1.83;;
10063;SDS011;5071;52.360;13.134;2023-01-16T20:36:29;1.90;;;1.00;;
10063;SDS011;5071;52.360;13.134;2023-01-16T20:41:32;1.50;;;1.10;;
10063;SDS011;5071;52.360;13.134;2023-01-16T20:46:35;2.47;;;1.63;;
10063;SDS011;5071;52.360;13.134;2023-01-16T20:51:36;2.27;;;1.40;;
10063;SDS011;5071;52.360;13.134;2023-01-16T20:56:39;1.93;;;1.27;;
10063;SDS011;5071;52.360;13.134;2023-01-16T21:01:42;1.27;;;1.10;;
10063;SDS011;5071;52.360;13.134;2023-01-16T21:06:44;3.67;;;1.20;;
10063;SDS011;5071;52.360;13.134;2023-01-16T21:11:48;2.27;;;1.20;;
10063;SDS011;5071;52.360;13.134;2023-01-16T21:16:51;1.57;;;1.10;;
10063;SDS011;5071;52.360;13.134;2023-01-16T21:21:53;1.70;;;1.23;;
10063;SDS011;5071;52.360;13.134;2023-01-16T21:26:56;1.63;;;1.10;;
10063;SDS011;5071;52.360;13.134;2023-01-16T21:31:59;1.83;;;1.10;;
10063;SDS011;5071;52.360;13.134;2023-01-16T21:37:01;2.27;;;1.23;;
10063;SDS011;5071;52.360;13.134;2023-01-16T21:42:05;0.97;;;0.73;;
10063;SDS011;5071;52.360;13.134;2023-01-16T21:53:44;1.83;;;0.90;;
10063;SDS011;5071;52.360;13.134;2023-01-16T21:58:47;1.50;;;1.00;;
10063;SDS011;5071;52.360;13.134;2023-01-16T22:03:49;1.23;;;0.97;;
10063;SDS011;5071;52.360;13.134;2023-01-16T22:08:51;1.67;;;0.90;;
10063;SDS011;5071;52.360;13.134;2023-01-16T22:13:54;1.63;;;1.10;;
10063;SDS011;5071;52.360;13.134;2023-01-16T22:18:56;2.13;;;1.20;;
10063;SDS011;5071;52.360;13.134;2023-01-16T22:23:58;3.00;;;1.10;;
10063;SDS011;5071;52.360;13.134;2023-01-16T22:29:02;1.30;;;1.00;;
10063;SDS011;5071;52.360;13.134;2023-01-16T22:34:05;2.00;;;1.03;;
10063;SDS011;5071;52.360;13.134;2023-01-16T22:39:06;1.03;;;0.90;;
10063;SDS011;5071;52.360;13.134;2023-01-16T22:44:10;1.90;;;0.90;;
10063;SDS011;5071;52.360;13.134;2023-01-16T22:49:12;2.77;;;0.90;;
10063;SDS011;5071;52.360;13.134;2023-01-16T22:54:14;1.40;;;1.07;;
10063;SDS011;5071;52.360;13.134;2023-01-16T22:59:17;1.10;;;1.00;;
10063;SDS011;5071;52.360;13.134;2023-01-16T23:04:20;1.23;;;1.00;;
10063;SDS011;5071;52.360;13.134;2023-01-16T23:09:22;1.53;;;1.00;;
10063;SDS011;5071;52.360;13.134;2023-01-16T23:14:27;1.80;;;1.10;;
10063;SDS011;5071;52.360;13.134;2023-01-16T23:19:29;1.10;;;0.77;;
10063;SDS011;5071;52.360;13.134;2023-01-16T23:24:33;1.77;;;0.80;;
10063;SDS011;5071;52.360;13.134;2023-01-16T23:29:36;1.70;;;0.87;;
10063;SDS011;5071;52.360;13.134;2023-01-16T23:34:38;2.87;;;0.80;;
10063;SDS011;5071;52.360;13.134;2023-01-16T23:39:40;2.70;;;1.13;;
10063;SDS011;5071;52.360;13.134;2023-01-16T23:44:44;1.83;;;1.10;;
10063;SDS011;5071;52.360;13.134;2023-01-16T23:49:47;2.00;;;1.17;;
10063;SDS011;5071;52.360;13.134;2023-01-16T23:54:50;0.93;;;0.83;;
10063;SDS011;5071;52.360;13.134;2023-01-16T23:59:53;2.07;;;1.20;;
